createdAt,value
2022-12-29T00:00:25.221Z,100214.06
2022-12-29T00:03:13.269Z,100212.47
2022-12-29T00:05:41.802Z,100213.31
2022-12-29T00:08:09.736Z,100211.53
2022-12-29T00:10:37.531Z,100214.94
2022-12-29T00:13:23.965Z,100212.31
2022-12-29T00:15:51.715Z,100214.09
2022-12-29T00:18:19.744Z,100216.88
2022-12-29T00:21:05.951Z,100206.41
2022-12-29T00:23:55.881Z,100203.75
2022-12-29T00:26:42.236Z,100206.22
2022-12-29T00:29:29.288Z,100201.13
2022-12-29T00:32:15.637Z,100210.50
2022-12-29T00:35:02.943Z,100204.69
2022-12-29T00:37:51.051Z,100208.19
2022-12-29T00:40:37.888Z,100210.59
2022-12-29T00:43:24.191Z,100208.66
2022-12-29T00:45:52.220Z,100217.59
2022-12-29T00:48:39.935Z,100210.53
2022-12-29T00:51:08.897Z,100207.19
2022-12-29T00:53:36.623Z,100215.03
2022-12-29T00:56:04.827Z,100215.09
2022-12-29T00:58:32.773Z,100215.75
2022-12-29T01:01:06.813Z,100221.94
2022-12-29T01:03:36.995Z,100211.56
2022-12-29T01:06:07.706Z,100206.34
2022-12-29T01:08:35.951Z,100206.00
2022-12-29T01:11:12.529Z,100198.50
2022-12-29T01:13:42.258Z,100200.22
2022-12-29T01:16:10.218Z,100195.06
2022-12-29T01:18:37.878Z,100187.34
2022-12-29T01:21:07.428Z,100187.41
2022-12-29T01:23:35.140Z,100183.16
2022-12-29T01:26:17.491Z,100169.94
2022-12-29T01:28:46.536Z,100178.75
2022-12-29T01:31:16.199Z,100174.53
2022-12-29T01:33:44.794Z,100174.97
2022-12-29T01:36:17.696Z,100168.94
2022-12-29T01:38:45.527Z,100168.13
2022-12-29T01:41:15.666Z,100162.38
2022-12-29T01:43:49.267Z,100165.84
2022-12-29T01:46:17.246Z,100160.44
2022-12-29T01:48:49.942Z,100153.84
2022-12-29T01:51:18.074Z,100154.59
2022-12-29T01:53:46.957Z,100146.19
2022-12-29T01:56:18.697Z,100139.94
2022-12-29T01:58:50.130Z,100139.75
2022-12-29T02:01:20.597Z,100128.56
2022-12-29T02:03:49.985Z,100139.00
2022-12-29T02:06:21.247Z,100136.50
2022-12-29T02:08:53.167Z,100136.50
2022-12-29T02:11:27.394Z,100139.28
2022-12-29T02:13:55.337Z,100144.47
2022-12-29T02:16:54.489Z,100133.31
2022-12-29T02:19:42.629Z,100123.09
2022-12-29T02:23:12.235Z,100125.34
2022-12-29T02:26:00.871Z,100135.84
2022-12-29T02:28:53.019Z,100127.41
2022-12-29T02:31:39.600Z,100113.31
2022-12-29T02:34:19.263Z,100115.06
2022-12-29T02:37:19.305Z,100125.69
2022-12-29T02:40:12.031Z,100130.88
2022-12-29T02:43:12.253Z,100131.09
2022-12-29T02:45:51.323Z,100137.94
2022-12-29T02:48:28.729Z,100135.44
2022-12-29T02:51:08.459Z,100144.00
2022-12-29T02:53:56.166Z,100146.78
2022-12-29T02:56:24.278Z,100154.31
2022-12-29T02:58:53.041Z,100146.00
2022-12-29T03:01:33.051Z,100149.53
2022-12-29T03:04:16.956Z,100145.97
2022-12-29T03:06:52.898Z,100155.53
2022-12-29T03:09:31.245Z,100149.69
2022-12-29T03:12:48.760Z,100151.53
2022-12-29T03:15:48.626Z,100155.22
2022-12-29T03:18:44.801Z,100150.81
2022-12-29T03:21:50.975Z,100151.00
2022-12-29T03:24:25.301Z,100151.97
2022-12-29T03:26:57.834Z,100148.63
2022-12-29T03:29:33.308Z,100145.22
2022-12-29T03:32:05.472Z,100147.78
2022-12-29T03:34:34.476Z,100153.56
2022-12-29T03:37:15.941Z,100135.59
2022-12-29T03:39:45.266Z,100136.34
2022-12-29T03:42:20.224Z,100121.69
2022-12-29T03:44:49.449Z,100127.00
2022-12-29T03:47:17.814Z,100112.38
2022-12-29T03:49:47.926Z,100116.78
2022-12-29T03:52:16.064Z,100100.31
2022-12-29T03:54:46.725Z,100087.38
2022-12-29T03:57:14.859Z,100079.69
2022-12-29T03:59:59.364Z,100060.03
2022-12-29T04:02:27.814Z,100050.66
2022-12-29T04:04:56.106Z,100045.59
2022-12-29T04:07:24.804Z,100044.78
2022-12-29T04:09:55.334Z,100056.97
2022-12-29T04:12:25.773Z,100073.41
2022-12-29T04:14:53.783Z,100072.59
2022-12-29T04:17:21.636Z,100073.44
2022-12-29T04:19:52.254Z,100073.59
2022-12-29T04:22:20.129Z,100064.97
2022-12-29T04:24:48.066Z,100055.34
2022-12-29T04:27:15.854Z,100061.28
2022-12-29T04:30:10.535Z,100050.25
2022-12-29T04:32:51.120Z,100060.44
2022-12-29T04:35:19.178Z,100055.53
2022-12-29T04:37:46.830Z,100065.84
2022-12-29T04:40:14.926Z,100073.50
2022-12-29T04:42:42.709Z,100078.72
2022-12-29T04:45:11.287Z,100064.88
2022-12-29T04:47:52.304Z,100055.63
2022-12-29T04:50:49.421Z,100027.97
2022-12-29T04:53:22.500Z,100035.00
2022-12-29T04:55:52.322Z,100029.72
2022-12-29T04:58:23.156Z,100040.13
2022-12-29T05:00:52.860Z,100042.00
2022-12-29T05:03:24.140Z,100050.72
2022-12-29T05:05:56.155Z,100036.91
2022-12-29T05:08:27.981Z,100053.22
2022-12-29T05:10:59.019Z,100050.47
2022-12-29T05:13:27.861Z,100038.56
2022-12-29T05:15:56.111Z,100035.94
2022-12-29T05:18:25.241Z,100021.25
2022-12-29T05:20:53.392Z,100029.00
2022-12-29T05:23:22.688Z,100028.09
2022-12-29T05:25:57.049Z,100018.53
2022-12-29T05:28:45.341Z,100021.03
2022-12-29T05:31:17.045Z,100026.34
2022-12-29T05:33:45.478Z,100019.53
2022-12-29T05:36:14.680Z,100019.56
2022-12-29T05:38:47.690Z,100023.03
2022-12-29T05:41:16.029Z,100019.59
2022-12-29T05:44:02.684Z,100010.81
2022-12-29T05:46:43.468Z,99995.38
2022-12-29T05:49:26.080Z,99995.22
2022-12-29T05:52:07.138Z,99987.50
2022-12-29T05:54:35.858Z,99983.34
2022-12-29T05:57:08.670Z,99978.06
2022-12-29T05:59:36.434Z,99970.34
2022-12-29T06:02:05.953Z,99980.06
2022-12-29T06:04:34.131Z,99987.94
2022-12-29T06:07:02.171Z,99997.31
2022-12-29T06:09:42.489Z,100001.69
2022-12-29T06:12:11.646Z,99997.25
2022-12-29T06:14:41.465Z,100002.38
2022-12-29T06:17:13.283Z,99990.44
2022-12-29T06:19:41.212Z,99988.59
2022-12-29T06:22:09.265Z,99993.63
2022-12-29T06:24:37.581Z,100001.66
2022-12-29T06:27:05.818Z,99995.47
2022-12-29T06:29:33.660Z,100000.53
2022-12-29T06:32:01.673Z,99997.97
2022-12-29T06:34:32.053Z,100001.19
2022-12-29T06:37:00.176Z,100001.13
2022-12-29T06:39:27.846Z,100000.09
2022-12-29T06:42:05.061Z,100007.25
2022-12-29T06:44:47.217Z,100001.88
2022-12-29T06:47:15.242Z,100005.50
2022-12-29T06:49:42.958Z,100016.53
2022-12-29T06:52:13.261Z,100015.00
2022-12-29T06:54:41.903Z,100019.28
2022-12-29T06:57:09.829Z,100026.13
2022-12-29T06:59:37.547Z,100019.94
2022-12-29T07:02:05.616Z,100017.25
2022-12-29T07:04:33.647Z,100017.25
2022-12-29T07:07:01.678Z,100009.66
2022-12-29T07:09:29.307Z,100008.66
2022-12-29T07:11:57.378Z,100008.88
2022-12-29T07:14:25.119Z,100006.91
2022-12-29T07:16:53.131Z,100001.81
2022-12-29T07:19:21.300Z,99991.38
2022-12-29T07:21:49.313Z,99993.91
2022-12-29T07:24:17.042Z,100001.63
2022-12-29T07:26:44.960Z,100009.28
2022-12-29T07:29:12.667Z,99998.13
2022-12-29T07:31:40.627Z,100001.50
2022-12-29T07:34:10.339Z,99998.03
2022-12-29T07:36:38.380Z,99988.56
2022-12-29T07:39:06.096Z,99988.63
2022-12-29T07:41:34.160Z,99982.34
2022-12-29T07:44:03.805Z,99972.88
2022-12-29T07:46:55.292Z,99974.56
2022-12-29T07:49:24.741Z,99978.75
2022-12-29T07:51:52.743Z,99975.22
2022-12-29T07:54:20.675Z,99977.22
2022-12-29T07:56:48.750Z,99982.31
2022-12-29T07:59:16.431Z,99986.53
2022-12-29T08:01:44.509Z,99987.09
2022-12-29T08:04:12.372Z,99980.94
2022-12-29T08:06:40.566Z,99964.34
2022-12-29T08:09:14.977Z,99979.91
2022-12-29T08:11:46.282Z,99976.41
2022-12-29T08:14:14.007Z,99972.88
2022-12-29T08:16:42.087Z,99980.69
2022-12-29T08:19:12.869Z,99974.34
2022-12-29T08:21:41.320Z,99967.22
2022-12-29T08:24:10.469Z,99964.06
2022-12-29T08:26:38.619Z,99959.97
2022-12-29T08:29:06.310Z,99953.63
2022-12-29T08:31:34.275Z,99960.84
2022-12-29T08:34:04.931Z,99964.19
2022-12-29T08:36:32.992Z,99956.06
2022-12-29T08:39:00.720Z,99962.59
2022-12-29T08:41:28.619Z,99968.22
2022-12-29T08:43:56.414Z,99972.09
2022-12-29T08:46:24.413Z,99965.50
2022-12-29T08:48:52.214Z,99962.13
2022-12-29T08:51:24.447Z,99974.34
2022-12-29T08:53:53.178Z,99976.59
2022-12-29T08:56:21.696Z,99978.81
2022-12-29T08:58:53.989Z,99973.56
2022-12-29T09:01:23.912Z,99981.22
2022-12-29T09:06:40.752Z,99965.63
2022-12-29T09:09:08.807Z,99971.84
2022-12-29T09:11:36.998Z,99969.38
2022-12-29T09:14:05.088Z,99968.78
2022-12-29T09:16:33.956Z,99962.34
2022-12-29T09:19:02.140Z,99952.66
2022-12-29T09:21:30.196Z,99960.22
2022-12-29T09:23:58.017Z,99959.19
2022-12-29T09:26:25.991Z,99955.97
2022-12-29T09:28:54.681Z,99953.63
2022-12-29T09:31:23.229Z,99957.50
2022-12-29T09:33:51.030Z,99934.66
2022-12-29T09:36:19.077Z,99942.97
2022-12-29T09:38:46.755Z,99938.66
2022-12-29T09:41:50.373Z,99937.59
2022-12-29T09:45:00.325Z,99935.75
2022-12-29T09:47:29.179Z,99953.28
2022-12-29T09:50:23.869Z,99945.47
2022-12-29T09:53:00.107Z,99948.69
2022-12-29T09:55:40.162Z,99934.84
2022-12-29T09:58:32.847Z,99927.19
2022-12-29T10:01:18.262Z,99935.94
2022-12-29T10:03:52.011Z,99925.84
2022-12-29T10:06:32.989Z,99922.25
2022-12-29T10:09:19.219Z,99922.63
2022-12-29T10:11:52.513Z,99926.81
2022-12-29T10:14:51.269Z,99932.03
2022-12-29T10:17:40.862Z,99922.94
2022-12-29T10:20:22.951Z,99918.53
2022-12-29T10:23:24.178Z,99917.63
2022-12-29T10:25:55.957Z,99919.50
2022-12-29T10:28:43.377Z,99907.72
2022-12-29T10:31:20.945Z,99904.88
2022-12-29T10:34:02.134Z,99901.19
2022-12-29T10:36:39.689Z,99907.09
2022-12-29T10:39:31.285Z,99908.25
2022-12-29T10:42:20.996Z,99902.63
2022-12-29T10:44:49.217Z,99900.81
2022-12-29T10:47:22.993Z,99905.19
2022-12-29T10:49:51.256Z,99896.84
2022-12-29T10:52:23.272Z,99901.69
2022-12-29T10:55:00.066Z,99892.53
2022-12-29T10:57:34.982Z,99885.69
2022-12-29T11:00:10.036Z,99881.19
2022-12-29T11:02:55.962Z,99873.00
2022-12-29T11:05:28.753Z,99871.13
2022-12-29T11:08:02.785Z,99879.34
2022-12-29T11:10:39.919Z,99871.47
2022-12-29T11:13:17.468Z,99883.03
2022-12-29T11:15:47.379Z,99878.50
2022-12-29T11:18:39.113Z,99880.41
2022-12-29T11:21:26.279Z,99887.78
2022-12-29T11:24:30.606Z,99887.78
2022-12-29T11:27:25.799Z,99891.28
2022-12-29T11:29:55.185Z,99879.91
2022-12-29T11:32:28.831Z,99874.44
2022-12-29T11:35:01.937Z,99880.56
2022-12-29T11:37:54.873Z,99875.56
2022-12-29T11:40:23.159Z,99871.75
2022-12-29T11:43:03.639Z,99877.06
2022-12-29T11:45:38.299Z,99883.28
2022-12-29T11:48:20.137Z,99883.63
2022-12-29T11:51:02.592Z,99887.78
2022-12-29T11:53:48.143Z,99884.38
2022-12-29T11:56:19.513Z,99883.22
2022-12-29T11:58:50.463Z,99884.28
2022-12-29T12:01:37.385Z,99877.66
2022-12-29T12:04:12.220Z,99885.47
2022-12-29T12:06:48.650Z,99893.00
2022-12-29T12:09:26.345Z,99890.00
2022-12-29T12:11:56.399Z,99885.78
2022-12-29T12:14:37.852Z,99880.97
2022-12-29T12:17:56.832Z,99878.16
2022-12-29T12:20:32.475Z,99867.63
2022-12-29T12:23:38.140Z,99875.75
2022-12-29T12:26:12.584Z,99870.44
2022-12-29T12:28:52.541Z,99868.34
2022-12-29T12:31:47.286Z,99861.47
2022-12-29T12:34:30.149Z,99855.59
2022-12-29T12:37:15.068Z,99864.81
2022-12-29T12:40:09.326Z,99856.75
2022-12-29T12:43:14.721Z,99847.25
2022-12-29T12:46:05.729Z,99846.31
2022-12-29T12:48:53.675Z,99845.88
2022-12-29T12:51:26.800Z,99841.84
2022-12-29T12:53:59.943Z,99834.69
2022-12-29T12:56:48.580Z,99835.22
2022-12-29T12:59:22.018Z,99834.53
2022-12-29T13:02:08.005Z,99843.41
2022-12-29T13:04:56.689Z,99845.88
2022-12-29T13:07:49.744Z,99827.66
2022-12-29T13:10:21.633Z,99837.63
2022-12-29T13:13:13.891Z,99832.56
2022-12-29T13:15:51.197Z,99830.00
2022-12-29T13:18:21.879Z,99840.53
2022-12-29T13:21:03.732Z,99836.78
2022-12-29T13:23:50.225Z,99836.06
2022-12-29T13:26:33.546Z,99837.69
2022-12-29T13:29:06.467Z,99840.44
2022-12-29T13:32:15.174Z,99847.38
2022-12-29T13:35:29.099Z,99842.03
2022-12-29T13:38:04.629Z,99856.94
2022-12-29T13:40:40.141Z,99856.78
2022-12-29T13:43:08.326Z,99851.94
2022-12-29T13:45:37.413Z,99842.94
2022-12-29T13:48:27.417Z,99844.56
2022-12-29T13:51:00.411Z,99842.91
2022-12-29T13:54:12.191Z,99849.72
2022-12-29T13:57:08.288Z,99854.28
2022-12-29T13:59:45.264Z,99850.44
2022-12-29T14:02:27.203Z,99852.03
2022-12-29T14:05:03.060Z,99856.91
2022-12-29T14:07:38.667Z,99860.16
2022-12-29T14:10:07.519Z,99858.16
2022-12-29T14:12:45.449Z,99861.72
2022-12-29T14:15:13.180Z,99866.00
2022-12-29T14:18:06.775Z,99862.38
2022-12-29T14:20:35.193Z,99860.88
2022-12-29T14:23:12.356Z,99861.69
2022-12-29T14:26:00.844Z,99860.66
2022-12-29T14:28:31.503Z,99855.66
2022-12-29T14:31:05.483Z,99855.44
2022-12-29T14:33:35.024Z,99857.81
2022-12-29T14:36:34.513Z,99856.84
2022-12-29T14:39:04.163Z,99855.03
2022-12-29T14:41:39.534Z,99851.41
2022-12-29T14:44:21.741Z,99844.16
2022-12-29T14:46:56.313Z,99844.69
2022-12-29T14:49:34.265Z,99841.41
2022-12-29T14:52:29.808Z,99849.91
2022-12-29T14:55:20.646Z,99848.56
2022-12-29T14:57:58.299Z,99844.91
2022-12-29T15:00:35.071Z,99849.13
2022-12-29T15:03:44.795Z,99843.09
2022-12-29T15:06:19.906Z,99855.25
2022-12-29T15:09:21.982Z,99852.47
2022-12-29T15:11:58.715Z,99853.31
2022-12-29T15:14:36.605Z,99848.84
2022-12-29T15:17:23.364Z,99847.91
2022-12-29T15:19:51.841Z,99853.91
2022-12-29T15:22:20.229Z,99852.22
2022-12-29T15:24:53.615Z,99861.22
2022-12-29T15:27:24.355Z,99860.41
2022-12-29T15:30:02.857Z,99858.84
2022-12-29T15:32:43.188Z,99866.22
2022-12-29T15:35:36.522Z,99854.94
2022-12-29T15:38:34.575Z,99853.44
2022-12-29T15:41:15.910Z,99858.91
2022-12-29T15:43:58.717Z,99847.88
2022-12-29T15:46:27.055Z,99862.25
2022-12-29T15:48:55.067Z,99864.81
2022-12-29T15:51:30.615Z,99857.91
2022-12-29T15:53:59.422Z,99854.69
2022-12-29T15:56:31.070Z,99848.16
2022-12-29T15:59:00.162Z,99850.13
2022-12-29T16:01:34.246Z,99851.84
2022-12-29T16:04:07.579Z,99851.25
2022-12-29T16:06:44.895Z,99849.78
2022-12-29T16:09:42.624Z,99860.41
2022-12-29T16:12:20.085Z,99852.09
2022-12-29T16:14:59.568Z,99860.19
2022-12-29T16:17:32.135Z,99857.91
2022-12-29T16:20:18.214Z,99862.22
2022-12-29T16:22:52.210Z,99856.16
2022-12-29T16:25:23.428Z,99860.41
2022-12-29T16:27:53.119Z,99868.03
2022-12-29T16:30:33.910Z,99871.63
2022-12-29T16:33:05.140Z,99868.84
2022-12-29T16:35:44.999Z,99867.41
2022-12-29T16:38:22.486Z,99877.22
2022-12-29T16:40:57.191Z,99869.31
2022-12-29T16:43:34.219Z,99869.78
2022-12-29T16:46:02.528Z,99877.47
2022-12-29T16:48:53.005Z,99872.25
2022-12-29T16:51:33.058Z,99875.38
2022-12-29T16:54:01.821Z,99881.34
2022-12-29T16:56:34.152Z,99875.75
2022-12-29T16:59:24.054Z,99877.56
2022-12-29T17:01:52.265Z,99879.97
2022-12-29T17:04:20.031Z,99885.19
2022-12-29T17:06:48.096Z,99863.88
2022-12-29T17:09:18.619Z,99884.09
2022-12-29T17:12:01.252Z,99877.34
2022-12-29T17:14:37.114Z,99881.03
2022-12-29T17:17:12.223Z,99881.38
2022-12-29T17:19:42.909Z,99882.38
2022-12-29T17:22:28.562Z,99878.06
2022-12-29T17:24:58.436Z,99887.50
2022-12-29T17:27:51.108Z,99884.38
2022-12-29T17:30:25.149Z,99877.13
2022-12-29T17:33:04.189Z,99884.09
2022-12-29T17:35:32.028Z,99874.38
2022-12-29T17:37:59.941Z,99878.31
2022-12-29T17:40:30.863Z,99874.63
2022-12-29T17:43:00.395Z,99873.44
2022-12-29T17:45:32.575Z,99882.31
2022-12-29T17:48:01.865Z,99876.06
2022-12-29T17:50:31.713Z,99875.09
2022-12-29T17:53:05.188Z,99867.88
2022-12-29T17:55:37.986Z,99870.63
2022-12-29T17:58:20.076Z,99868.06
2022-12-29T18:00:49.795Z,99879.34
2022-12-29T18:03:23.248Z,99879.34
2022-12-29T18:05:51.406Z,99873.94
2022-12-29T18:08:19.405Z,99874.91
2022-12-29T18:10:47.609Z,99882.56
2022-12-29T18:13:40.467Z,99881.31
2022-12-29T18:16:12.747Z,99874.69
2022-12-29T18:18:40.783Z,99883.63
2022-12-29T18:21:19.819Z,99880.00
2022-12-29T18:23:48.162Z,99884.47
2022-12-29T18:26:27.308Z,99889.50
2022-12-29T18:28:57.390Z,99878.56
2022-12-29T18:31:31.139Z,99889.94
2022-12-29T18:34:01.337Z,99890.63
2022-12-29T18:36:29.988Z,99886.53
2022-12-29T18:38:58.033Z,99893.75
2022-12-29T18:41:29.885Z,99894.75
2022-12-29T18:43:59.744Z,99886.38
2022-12-29T18:46:27.790Z,99879.72
2022-12-29T18:48:55.917Z,99882.94
2022-12-29T18:51:25.464Z,99888.47
2022-12-29T18:53:54.376Z,99882.22
2022-12-29T18:56:23.403Z,99890.53
2022-12-29T18:58:53.509Z,99884.94
2022-12-29T19:01:23.859Z,99890.19
2022-12-29T19:03:52.500Z,99880.19
2022-12-29T19:06:21.362Z,99879.38
2022-12-29T19:08:49.747Z,99883.66
2022-12-29T19:11:17.989Z,99870.63
2022-12-29T19:13:45.987Z,99870.16
2022-12-29T19:16:19.902Z,99877.06
2022-12-29T19:19:00.884Z,99878.91
2022-12-29T19:21:36.578Z,99878.59
2022-12-29T19:24:04.992Z,99880.88
2022-12-29T19:26:36.452Z,99880.94
2022-12-29T19:29:06.807Z,99881.25
2022-12-29T19:31:35.331Z,99882.91
2022-12-29T19:34:03.697Z,99882.00
2022-12-29T19:36:31.844Z,99873.47
2022-12-29T19:38:59.794Z,99880.13
2022-12-29T19:41:27.630Z,99873.88
2022-12-29T19:43:55.979Z,99879.53
2022-12-29T19:46:24.614Z,99894.31
2022-12-29T19:48:54.979Z,99886.69
2022-12-29T19:51:22.737Z,99884.09
2022-12-29T19:53:50.941Z,99883.22
2022-12-29T19:56:18.906Z,99885.88
2022-12-29T19:58:47.730Z,99885.78
2022-12-29T20:01:17.603Z,99883.06
2022-12-29T20:03:45.986Z,99885.13
2022-12-29T20:06:14.656Z,99888.66
2022-12-29T20:08:42.907Z,99890.44
2022-12-29T20:11:14.549Z,99885.13
2022-12-29T20:13:43.821Z,99886.56
2022-12-29T20:16:17.582Z,99876.16
2022-12-29T20:18:45.773Z,99880.22
2022-12-29T20:21:17.011Z,99887.28
2022-12-29T20:23:45.802Z,99873.41
2022-12-29T20:26:23.295Z,99875.66
2022-12-29T20:28:52.734Z,99879.34
2022-12-29T20:31:32.439Z,99872.44
2022-12-29T20:34:01.136Z,99868.19
2022-12-29T20:36:32.178Z,99870.63
2022-12-29T20:39:03.461Z,99876.84
2022-12-29T20:41:31.342Z,99879.44
2022-12-29T20:44:00.014Z,99874.50
2022-12-29T20:46:33.958Z,99875.19
2022-12-29T20:49:05.186Z,99879.44
2022-12-29T20:52:04.448Z,99884.38
2022-12-29T20:54:21.428Z,99885.13
2022-12-29T20:56:49.374Z,99881.81
2022-12-29T20:59:27.425Z,99880.50
2022-12-29T21:01:56.387Z,99885.34
2022-12-29T21:04:25.297Z,99880.69
2022-12-29T21:06:53.478Z,99884.09
2022-12-29T21:09:21.720Z,99879.09
2022-12-29T21:11:49.785Z,99881.34
2022-12-29T21:14:17.897Z,99896.88
2022-12-29T21:16:47.064Z,99887.78
2022-12-29T21:19:16.009Z,99884.28
2022-12-29T21:21:43.661Z,99882.88
2022-12-29T21:24:11.585Z,99880.09
2022-12-29T21:26:39.328Z,99883.56
2022-12-29T21:29:07.380Z,99884.09
2022-12-29T21:31:36.721Z,99886.41
2022-12-29T21:34:06.124Z,99889.13
2022-12-29T21:36:34.258Z,99883.09
2022-12-29T21:39:03.589Z,99884.91
2022-12-29T21:41:31.933Z,99892.72
2022-12-29T21:44:19.920Z,99882.81
2022-12-29T21:46:50.543Z,99889.59
2022-12-29T21:49:18.444Z,99888.84
2022-12-29T21:51:52.480Z,99888.56
2022-12-29T21:54:42.823Z,99899.75
2022-12-29T21:57:15.419Z,99899.25
2022-12-29T22:00:04.597Z,99888.59
2022-12-29T22:02:55.412Z,99892.19
2022-12-29T22:05:42.201Z,99887.78
2022-12-29T22:08:28.289Z,99895.50
2022-12-29T22:11:14.706Z,99896.91
2022-12-29T22:13:42.418Z,99894.59
2022-12-29T22:16:12.290Z,99893.56
2022-12-29T22:18:40.161Z,99895.50
2022-12-29T22:21:10.191Z,99891.94
2022-12-29T22:23:38.252Z,99891.91
2022-12-29T22:26:12.399Z,99889.25
2022-12-29T22:28:42.058Z,99891.75
2022-12-29T22:31:30.165Z,99891.00
2022-12-29T22:34:03.019Z,99893.66
2022-12-29T22:36:32.680Z,99903.44
2022-12-29T22:39:00.393Z,99908.94
2022-12-29T22:41:28.382Z,99912.44
2022-12-29T22:43:56.018Z,99916.00
2022-12-29T22:46:24.202Z,99916.31
2022-12-29T22:48:52.084Z,99920.03
2022-12-29T22:51:20.033Z,99920.69
2022-12-29T22:53:50.139Z,99921.22
2022-12-29T22:56:18.870Z,99921.59
2022-12-29T22:58:48.192Z,99930.34
2022-12-29T23:01:18.170Z,99927.03
2022-12-29T23:03:46.140Z,99927.41
2022-12-29T23:06:16.396Z,99922.28
2022-12-29T23:08:44.509Z,99927.84
2022-12-29T23:11:13.666Z,99928.31
2022-12-29T23:13:42.238Z,99926.13
2022-12-29T23:16:10.221Z,99927.28
2022-12-29T23:18:38.070Z,99937.25
2022-12-29T23:21:06.753Z,99925.91
2022-12-29T23:23:53.656Z,99928.25
2022-12-29T23:26:27.966Z,99932.16
2022-12-29T23:28:59.860Z,99930.28
2022-12-29T23:31:29.533Z,99939.56
2022-12-29T23:33:58.626Z,99946.25
2022-12-29T23:36:27.100Z,99937.28
2022-12-29T23:38:54.923Z,99945.81
2022-12-29T23:41:23.246Z,99946.06
2022-12-29T23:43:51.167Z,99950.78
2022-12-29T23:46:22.386Z,99949.22
2022-12-29T23:48:50.857Z,99948.00
2022-12-29T23:51:19.270Z,99948.47
2022-12-29T23:53:47.505Z,99953.91
2022-12-29T23:56:18.757Z,99944.53
2022-12-29T23:58:46.550Z,99937.78
